createdAt,value
2018-08-01T00:01:25.341Z,25.00
2018-08-01T00:02:53.025Z,24.97
2018-08-01T00:04:20.699Z,24.94
2018-08-01T00:05:47.142Z,24.92
2018-08-01T00:07:14.394Z,24.93
2018-08-01T00:08:41.937Z,24.93
2018-08-01T00:10:09.355Z,24.93
2018-08-01T00:11:37.565Z,24.92
2018-08-01T00:13:05.102Z,24.92
2018-08-01T00:14:31.653Z,24.90
2018-08-01T00:15:59.267Z,24.87
2018-08-01T00:17:26.880Z,24.86
2018-08-01T00:18:54.460Z,24.87
2018-08-01T00:20:22.030Z,24.86
2018-08-01T00:21:49.592Z,24.86
2018-08-01T00:23:18.050Z,24.86
2018-08-01T00:24:44.519Z,24.87
2018-08-01T00:26:12.103Z,24.88
2018-08-01T00:27:39.162Z,24.87
2018-08-01T00:29:06.703Z,24.84
2018-08-01T00:30:34.409Z,24.84
2018-08-01T00:32:01.980Z,24.83
2018-08-01T00:33:30.667Z,24.81
2018-08-01T00:34:57.147Z,24.79
2018-08-01T00:36:24.283Z,24.76
2018-08-01T00:37:52.393Z,24.74
2018-08-01T00:39:19.088Z,24.72
2018-08-01T00:40:46.508Z,24.72
2018-08-01T00:42:14.072Z,24.73
2018-08-01T00:43:42.685Z,24.75
2018-08-01T00:45:08.974Z,24.72
2018-08-01T00:46:37.401Z,24.70
2018-08-01T00:48:03.673Z,24.67
2018-08-01T00:49:31.278Z,24.64
2018-08-01T00:50:58.468Z,24.61
2018-08-01T00:52:26.110Z,24.61
2018-08-01T00:53:53.138Z,24.62
2018-08-01T00:55:21.604Z,24.61
2018-08-01T00:56:48.267Z,24.57
2018-08-01T00:58:16.844Z,24.56
2018-08-01T00:59:44.243Z,24.56
2018-08-01T01:01:10.674Z,24.54
2018-08-01T01:02:38.154Z,24.48
2018-08-01T01:04:05.818Z,24.46
2018-08-01T01:05:33.349Z,24.47
2018-08-01T01:07:01.286Z,24.46
2018-08-01T01:08:28.913Z,24.46
2018-08-01T01:09:55.086Z,24.47
2018-08-01T01:11:22.842Z,24.48
2018-08-01T01:12:50.191Z,24.50
2018-08-01T01:14:17.741Z,24.51
2018-08-01T01:15:46.464Z,24.52
2018-08-01T01:17:12.954Z,24.51
2018-08-01T01:18:40.627Z,24.50
2018-08-01T01:20:08.902Z,24.49
2018-08-01T01:21:35.524Z,24.46
2018-08-01T01:23:04.061Z,24.40
2018-08-01T01:24:31.236Z,24.37
2018-08-01T01:25:58.816Z,24.36
2018-08-01T01:27:25.658Z,24.37
2018-08-01T01:28:52.314Z,24.34
2018-08-01T01:30:20.040Z,24.33
2018-08-01T01:31:48.787Z,24.33
2018-08-01T01:33:16.212Z,24.28
2018-08-01T01:34:42.823Z,24.24
2018-08-01T01:36:10.363Z,24.21
2018-08-01T01:37:37.500Z,24.20
2018-08-01T01:39:05.102Z,24.21
2018-08-01T01:40:32.811Z,24.19
2018-08-01T01:42:00.443Z,24.17
2018-08-01T01:43:28.475Z,24.16
2018-08-01T01:44:56.133Z,24.18
2018-08-01T01:46:23.168Z,24.18
2018-08-01T01:47:49.864Z,24.15
2018-08-01T01:49:17.272Z,24.16
2018-08-01T01:50:45.949Z,24.15
2018-08-01T01:52:12.209Z,24.14
2018-08-01T01:53:40.841Z,24.13
2018-08-01T01:55:08.154Z,24.09
2018-08-01T01:56:35.164Z,24.06
2018-08-01T01:58:02.851Z,24.06
2018-08-01T01:59:29.129Z,24.00
2018-08-01T02:00:56.227Z,24.02
2018-08-01T02:02:23.203Z,24.04
2018-08-01T02:03:50.653Z,24.06
2018-08-01T02:05:17.811Z,24.07
2018-08-01T02:06:45.391Z,24.02
2018-08-01T02:08:12.957Z,24.02
2018-08-01T02:09:41.614Z,24.02
2018-08-01T02:11:08.880Z,24.02
2018-08-01T02:12:35.170Z,23.98
2018-08-01T02:14:02.874Z,23.94
2018-08-01T02:15:31.496Z,23.91
2018-08-01T02:16:59.123Z,23.87
2018-08-01T02:18:25.919Z,23.84
2018-08-01T02:19:54.401Z,23.83
2018-08-01T02:21:20.769Z,23.80
2018-08-01T02:22:48.337Z,23.81
2018-08-01T02:24:15.547Z,23.77
2018-08-01T02:25:44.167Z,23.78
2018-08-01T02:27:10.912Z,23.77
2018-08-01T02:28:38.337Z,23.77
2018-08-01T02:30:05.884Z,23.73
2018-08-01T02:31:33.862Z,23.71
2018-08-01T02:33:01.476Z,23.68
2018-08-01T02:34:29.114Z,23.68
2018-08-01T02:35:55.910Z,23.68
2018-08-01T02:37:23.169Z,23.71
2018-08-01T02:38:50.885Z,23.74
2018-08-01T02:40:18.355Z,23.73
2018-08-01T02:41:45.955Z,23.74
2018-08-01T02:43:13.608Z,23.74
2018-08-01T02:44:40.785Z,23.75
2018-08-01T02:46:08.341Z,23.77
2018-08-01T02:47:37.100Z,23.76
2018-08-01T02:49:03.704Z,23.70
2018-08-01T02:50:31.767Z,23.65
2018-08-01T02:51:59.022Z,23.57
2018-08-01T02:53:26.544Z,23.52
2018-08-01T02:54:53.032Z,23.44
2018-08-01T02:56:20.645Z,23.41
2018-08-01T02:57:47.568Z,23.42
2018-08-01T02:59:15.041Z,23.46
2018-08-01T03:00:43.519Z,23.44
2018-08-01T03:02:10.943Z,23.41
2018-08-01T03:03:38.388Z,23.34
2018-08-01T03:05:05.052Z,23.29
2018-08-01T03:06:32.641Z,23.27
2018-08-01T03:07:59.755Z,23.26
2018-08-01T03:09:27.257Z,23.29
2018-08-01T03:10:54.552Z,23.32
2018-08-01T03:12:22.125Z,23.35
2018-08-01T03:13:49.689Z,23.33
2018-08-01T03:15:17.274Z,23.33
2018-08-01T03:16:44.500Z,23.34
2018-08-01T03:18:11.918Z,23.30
2018-08-01T03:19:40.612Z,23.29
2018-08-01T03:21:07.019Z,23.29
2018-08-01T03:22:34.745Z,23.30
2018-08-01T03:24:21.430Z,23.30
2018-08-01T03:25:49.802Z,23.34
2018-08-01T03:27:16.384Z,23.36
2018-08-01T03:31:48.979Z,23.32
2018-08-01T03:33:14.694Z,23.38
2018-08-01T03:34:42.169Z,23.43
2018-08-01T03:36:09.656Z,23.47
2018-08-01T03:37:37.197Z,23.49
2018-08-01T03:39:05.566Z,23.50
2018-08-01T03:40:33.045Z,23.50
2018-08-01T03:41:59.556Z,23.53
2018-08-01T03:43:27.874Z,23.55
2018-08-01T03:44:54.293Z,23.57
2018-08-01T03:46:22.929Z,23.56
2018-08-01T03:47:49.332Z,23.56
2018-08-01T03:49:16.935Z,23.55
2018-08-01T03:50:44.382Z,23.53
2018-08-01T03:52:13.105Z,23.48
2018-08-01T03:53:40.394Z,23.43
2018-08-01T03:57:32.323Z,23.35
2018-08-01T03:59:27.849Z,23.40
2018-08-01T04:00:56.050Z,23.45
2018-08-01T04:02:22.025Z,23.50
2018-08-01T04:03:48.834Z,23.54
2018-08-01T05:15:41.503Z,24.42
2018-08-01T05:17:08.301Z,24.46
2018-08-01T05:18:35.693Z,24.52
2018-08-01T05:20:03.289Z,24.56
2018-08-01T05:21:30.058Z,24.54
2018-08-01T05:22:57.550Z,24.56
2018-08-01T05:24:25.172Z,24.56
2018-08-01T05:25:52.067Z,24.56
2018-08-01T05:27:19.689Z,24.55
2018-08-01T05:28:47.292Z,24.50
2018-08-01T05:30:14.963Z,24.49
2018-08-01T05:31:42.308Z,24.43
2018-08-01T05:33:09.839Z,24.41
2018-08-01T05:34:38.592Z,24.39
2018-08-01T05:36:06.126Z,24.35
2018-08-01T05:37:32.262Z,24.31
2018-08-01T05:38:59.902Z,24.29
2018-08-01T05:40:27.459Z,24.28
2018-08-01T05:41:55.193Z,24.23
2018-08-01T05:43:23.586Z,24.18
2018-08-01T05:51:18.808Z,24.13
2018-08-01T05:54:11.706Z,24.19
2018-08-01T05:55:39.109Z,24.20
2018-08-01T05:57:05.812Z,24.23
2018-08-01T05:58:34.365Z,24.24
2018-08-01T06:00:00.320Z,24.25
2018-08-01T06:01:27.560Z,24.25
2018-08-01T06:02:54.520Z,24.27
2018-08-01T06:04:22.943Z,24.25
2018-08-01T06:05:50.419Z,24.24
2018-08-01T06:07:11.026Z,24.21
2018-08-01T06:08:44.597Z,24.17
2018-08-01T06:10:12.149Z,24.18
2018-08-01T06:11:39.757Z,24.17
2018-08-01T06:13:06.898Z,24.19
2018-08-01T06:14:35.542Z,24.25
2018-08-01T06:16:03.100Z,24.40
2018-08-01T06:17:29.441Z,24.47
2018-08-01T06:18:56.076Z,24.57
2018-08-01T06:20:24.750Z,24.73
2018-08-01T06:21:52.441Z,25.01
2018-08-01T06:23:18.996Z,25.21
2018-08-01T06:24:46.478Z,25.32
2018-08-01T06:26:14.111Z,25.44
2018-08-01T06:27:41.700Z,25.47
2018-08-01T06:29:10.259Z,25.45
2018-08-01T06:30:37.351Z,25.49
2018-08-01T06:32:04.981Z,25.54
2018-08-01T06:33:31.685Z,25.64
2018-08-01T06:34:59.241Z,25.63
2018-08-01T06:36:26.861Z,25.58
2018-08-01T06:37:53.948Z,25.55
2018-08-01T06:39:21.488Z,25.55
2018-08-01T06:40:49.428Z,25.51
2018-08-01T06:42:16.809Z,25.47
2018-08-01T06:43:42.750Z,25.52
2018-08-01T06:45:10.009Z,25.62
2018-08-01T06:46:33.394Z,25.78
2018-08-01T06:48:05.675Z,25.90
2018-08-01T06:49:31.947Z,26.06
2018-08-01T06:50:59.363Z,26.14
2018-08-01T06:52:27.987Z,26.27
2018-08-01T06:53:55.549Z,26.31
2018-08-01T06:55:22.147Z,26.41
2018-08-01T06:56:49.846Z,26.53
2018-08-01T06:58:18.482Z,26.65
2018-08-01T06:59:44.681Z,26.75
2018-08-01T07:01:13.234Z,26.86
2018-08-01T07:02:39.944Z,26.90
2018-08-01T07:04:07.502Z,27.00
2018-08-01T07:05:35.139Z,27.07
2018-08-01T07:07:02.155Z,27.15
2018-08-01T07:08:29.798Z,27.21
2018-08-01T07:09:56.709Z,27.26
2018-08-01T07:11:23.934Z,27.31
2018-08-01T07:12:51.579Z,27.38
2018-08-01T07:14:20.004Z,27.45
2018-08-01T07:15:47.132Z,27.51
2018-08-01T07:17:13.446Z,27.49
2018-08-01T07:18:40.505Z,27.42
2018-08-01T07:20:07.563Z,27.36
2018-08-01T07:21:34.834Z,27.29
2018-08-01T07:23:02.407Z,27.20
2018-08-01T07:24:29.277Z,27.16
2018-08-01T07:25:56.908Z,27.10
2018-08-01T07:27:23.675Z,27.03
2018-08-01T07:28:52.408Z,26.90
2018-08-01T07:30:18.341Z,26.76
2018-08-01T07:31:45.907Z,26.66
2018-08-01T07:33:14.564Z,26.59
2018-08-01T07:34:41.104Z,26.58
2018-08-01T07:36:07.816Z,26.61
2018-08-01T07:37:35.421Z,26.69
2018-08-01T07:39:03.082Z,26.77
2018-08-01T07:40:31.664Z,26.82
2018-08-01T07:41:59.226Z,26.85
2018-08-01T07:43:25.550Z,26.88
2018-08-01T07:44:52.442Z,26.89
2018-08-01T07:46:19.793Z,26.89
2018-08-01T07:47:48.470Z,26.92
2018-08-01T07:49:15.132Z,27.00
2018-08-01T07:50:42.701Z,27.11
2018-08-01T07:52:10.435Z,27.20
2018-08-01T07:53:37.858Z,27.30
2018-08-01T07:55:05.518Z,27.44
2018-08-01T07:56:33.024Z,27.57
2018-08-01T07:58:00.390Z,27.58
2018-08-01T07:59:28.034Z,27.43
2018-08-01T08:00:55.695Z,27.37
2018-08-01T08:02:24.288Z,27.33
2018-08-01T08:03:50.816Z,27.32
2018-08-01T08:05:19.443Z,27.25
2018-08-01T08:06:47.029Z,27.19
2018-08-01T08:08:13.780Z,27.04
2018-08-01T08:09:41.391Z,26.91
2018-08-01T08:11:08.986Z,26.84
2018-08-01T08:12:36.451Z,26.78
2018-08-01T08:14:04.121Z,26.76
2018-08-01T08:15:32.656Z,26.72
2018-08-01T08:16:58.850Z,26.68
2018-08-01T08:18:26.121Z,26.64
2018-08-01T08:19:53.844Z,26.60
2018-08-01T08:21:21.198Z,26.54
2018-08-01T08:22:48.282Z,26.50
2018-08-01T08:24:16.727Z,26.50
2018-08-01T08:25:43.286Z,26.46
2018-08-01T08:27:10.878Z,26.38
2018-08-01T08:28:39.405Z,26.35
2018-08-01T08:30:05.778Z,26.32
2018-08-01T08:31:33.888Z,26.30
2018-08-01T08:33:00.267Z,26.26
2018-08-01T08:34:27.534Z,26.30
2018-08-01T08:35:55.330Z,26.35
2018-08-01T08:37:22.574Z,26.47
2018-08-01T08:38:50.053Z,26.57
2018-08-01T08:40:18.308Z,26.73
2018-08-01T08:41:45.905Z,26.81
2018-08-01T08:43:13.195Z,26.87
2018-08-01T08:44:39.521Z,26.89
2018-08-01T08:46:07.069Z,26.91
2018-08-01T08:47:35.768Z,26.89
2018-08-01T08:49:02.459Z,26.87
2018-08-01T08:50:30.755Z,26.83
2018-08-01T08:51:57.524Z,26.74
2018-08-01T08:53:25.937Z,26.66
2018-08-01T08:54:53.799Z,26.58
2018-08-01T08:56:20.383Z,26.51
2018-08-01T08:57:48.000Z,26.46
2018-08-01T08:59:15.604Z,26.41
2018-08-01T09:00:43.409Z,26.37
2018-08-01T09:02:10.653Z,26.33
2018-08-01T09:03:38.185Z,26.26
2018-08-01T09:05:05.144Z,26.25
2018-08-01T09:06:33.833Z,26.28
2018-08-01T09:08:00.491Z,26.25
2018-08-01T09:09:28.033Z,26.28
2018-08-01T09:10:55.645Z,26.33
2018-08-01T09:12:23.253Z,26.38
2018-08-01T09:13:50.710Z,26.45
2018-08-01T09:15:18.361Z,26.53
2018-08-01T09:16:45.475Z,26.59
2018-08-01T09:18:13.015Z,26.60
2018-08-01T09:19:41.154Z,26.59
2018-08-01T09:21:07.663Z,26.55
2018-08-01T09:22:35.303Z,26.53
2018-08-01T09:24:02.498Z,26.53
2018-08-01T09:25:29.676Z,26.52
2018-08-01T09:26:58.373Z,26.50
2018-08-01T09:28:31.137Z,26.49
2018-08-01T09:29:52.182Z,26.42
2018-08-01T09:31:19.844Z,26.44
2018-08-01T09:32:48.431Z,26.42
2018-08-01T09:34:15.103Z,26.37
2018-08-01T09:35:42.764Z,26.38
2018-08-01T09:37:10.308Z,26.38
2018-08-01T09:38:38.614Z,26.32
2018-08-01T09:40:06.140Z,26.28
2018-08-01T09:41:32.668Z,26.21
2018-08-01T09:43:01.168Z,26.18
2018-08-01T09:44:28.880Z,26.12
2018-08-01T09:45:55.571Z,26.09
2018-08-01T09:47:24.207Z,26.05
2018-08-01T09:48:50.732Z,25.99
2018-08-01T09:50:18.281Z,25.93
2018-08-01T09:51:45.925Z,25.83
2018-08-01T09:53:13.584Z,25.79
2018-08-01T09:54:40.897Z,25.73
2018-08-01T09:56:08.073Z,25.73
2018-08-01T09:57:35.631Z,25.70
2018-08-01T09:59:04.167Z,25.71
2018-08-01T10:00:30.422Z,25.71
2018-08-01T10:01:59.293Z,25.71
2018-08-01T10:03:25.800Z,25.69
2018-08-01T10:04:53.373Z,25.69
2018-08-01T10:06:20.685Z,25.65
2018-08-01T10:07:48.054Z,25.62
2018-08-01T10:09:16.701Z,25.66
2018-08-01T10:10:43.136Z,25.70
2018-08-01T10:12:11.654Z,25.76
2018-08-01T10:13:38.207Z,25.79
2018-08-01T10:15:06.866Z,25.80
2018-08-01T10:16:33.122Z,25.79
2018-08-01T10:18:01.921Z,25.81
2018-08-01T10:19:28.498Z,25.85
2018-08-01T10:20:56.114Z,25.94
2018-08-01T10:22:23.805Z,26.05
2018-08-01T10:23:52.506Z,26.20
2018-08-01T10:25:18.898Z,26.34
2018-08-01T10:26:47.305Z,26.48
2018-08-01T10:28:13.905Z,26.71
2018-08-01T10:29:41.274Z,26.91
2018-08-01T10:31:08.914Z,27.07
2018-08-01T10:32:36.391Z,27.17
2018-08-01T10:34:04.051Z,27.29
2018-08-01T10:35:31.903Z,27.46
2018-08-01T10:36:59.534Z,27.61
2018-08-01T10:38:27.312Z,27.74
2018-08-01T10:39:55.004Z,27.77
2018-08-01T10:41:23.781Z,27.86
2018-08-01T10:42:50.568Z,27.89
2018-08-01T10:44:18.099Z,27.92
2018-08-01T10:45:47.019Z,27.94
2018-08-01T10:47:14.532Z,27.95
2018-08-01T10:48:40.887Z,27.87
2018-08-01T10:50:08.651Z,27.79
2018-08-01T10:51:36.897Z,27.74
2018-08-01T10:53:03.494Z,27.82
2018-08-01T10:54:31.219Z,27.94
2018-08-01T10:55:59.569Z,28.06
2018-08-01T10:57:27.097Z,28.26
2018-08-01T10:58:54.431Z,28.39
2018-08-01T11:00:20.303Z,28.50
2018-08-01T11:01:48.041Z,28.62
2018-08-01T11:03:15.769Z,28.77
2018-08-01T11:04:44.449Z,28.93
2018-08-01T11:06:12.238Z,29.07
2018-08-01T11:07:38.673Z,29.18
2018-08-01T11:09:05.951Z,29.22
2018-08-01T11:10:34.431Z,29.30
2018-08-01T11:12:02.150Z,29.30
2018-08-01T11:13:29.609Z,29.29
2018-08-01T11:14:57.245Z,29.34
2018-08-01T11:16:24.978Z,29.39
2018-08-01T11:17:51.395Z,29.51
2018-08-01T11:19:18.839Z,29.58
2018-08-01T11:20:47.421Z,29.54
2018-08-01T11:22:13.900Z,29.65
2018-08-01T11:23:41.334Z,29.79
2018-08-01T11:25:09.927Z,29.95
2018-08-01T11:26:35.934Z,30.11
2018-08-01T11:28:03.640Z,30.22
2018-08-01T11:29:31.240Z,30.35
2018-08-01T11:30:58.955Z,30.40
2018-08-01T11:32:26.610Z,30.49
2018-08-01T11:33:54.005Z,30.73
2018-08-01T11:35:21.865Z,30.89
2018-08-01T11:36:49.457Z,30.95
2018-08-01T11:38:17.283Z,31.05
2018-08-01T11:39:44.899Z,31.12
2018-08-01T11:41:12.530Z,31.08
2018-08-01T11:42:41.189Z,31.16
2018-08-01T11:44:07.761Z,31.22
2018-08-01T11:45:35.616Z,31.30
2018-08-01T11:47:03.216Z,31.54
2018-08-01T11:48:31.097Z,31.74
2018-08-01T11:49:59.507Z,32.09
2018-08-01T11:51:27.052Z,32.42
2018-08-01T11:52:53.729Z,32.67
2018-08-01T11:54:21.529Z,32.94
2018-08-01T11:55:49.173Z,33.16
2018-08-01T11:57:17.018Z,33.03
2018-08-01T11:58:43.503Z,33.14
2018-08-01T12:00:12.021Z,33.20
2018-08-01T12:01:39.737Z,33.45
2018-08-01T12:03:05.756Z,33.59
2018-08-01T12:04:33.733Z,33.70
2018-08-01T12:06:00.458Z,33.89
2018-08-01T12:07:29.267Z,34.05
2018-08-01T12:08:57.002Z,34.25
2018-08-01T12:10:24.205Z,34.23
2018-08-01T12:11:50.883Z,34.08
2018-08-01T12:13:18.606Z,34.17
2018-08-01T12:14:46.294Z,34.26
2018-08-01T12:16:13.773Z,34.15
2018-08-01T12:17:41.140Z,34.21
2018-08-01T12:19:09.884Z,34.17
2018-08-01T12:20:36.494Z,34.04
2018-08-01T12:22:03.570Z,34.01
2018-08-01T12:23:31.139Z,33.98
2018-08-01T12:24:58.926Z,34.04
2018-08-01T12:26:26.619Z,34.11
2018-08-01T12:27:54.092Z,34.28
2018-08-01T12:29:21.159Z,34.47
2018-08-01T12:30:48.687Z,34.51
2018-08-01T12:32:17.312Z,34.70
2018-08-01T12:33:44.089Z,34.85
2018-08-01T12:35:11.827Z,34.93
2018-08-01T12:36:39.495Z,35.02
2018-08-01T12:38:06.926Z,35.19
2018-08-01T12:39:34.703Z,35.30
2018-08-01T12:41:03.470Z,35.31
2018-08-01T12:42:29.997Z,35.35
2018-08-01T12:43:57.760Z,35.47
2018-08-01T12:45:25.608Z,35.36
2018-08-01T12:46:53.355Z,35.20
2018-08-01T12:48:22.140Z,35.15
2018-08-01T12:49:48.878Z,35.09
2018-08-01T12:51:16.743Z,35.04
2018-08-01T12:52:45.206Z,35.01
2018-08-01T12:54:12.944Z,34.90
2018-08-01T12:55:40.553Z,34.89
2018-08-01T12:57:07.013Z,34.97
2018-08-01T12:58:35.718Z,35.04
2018-08-01T13:00:02.434Z,34.90
2018-08-01T13:01:29.979Z,34.86
2018-08-01T13:02:57.748Z,34.92
2018-08-01T13:04:25.312Z,34.72
2018-08-01T13:05:53.174Z,34.50
2018-08-01T13:07:20.815Z,34.18
2018-08-01T13:08:48.461Z,34.17
2018-08-01T13:10:16.132Z,34.02
2018-08-01T13:11:43.957Z,33.81
2018-08-01T13:13:12.680Z,33.74
2018-08-01T13:14:39.244Z,33.88
2018-08-01T13:16:06.818Z,33.99
2018-08-01T13:17:34.481Z,34.03
2018-08-01T13:19:02.288Z,33.93
2018-08-01T13:20:29.931Z,33.76
2018-08-01T13:21:58.754Z,33.67
2018-08-01T13:23:25.455Z,33.58
2018-08-01T13:24:53.098Z,33.53
2018-08-01T13:26:20.763Z,33.52
2018-08-01T13:27:48.383Z,33.59
2018-08-01T13:29:15.955Z,33.44
2018-08-01T13:30:43.695Z,33.44
2018-08-01T13:32:11.119Z,33.36
2018-08-01T13:33:38.708Z,33.22
2018-08-01T13:35:06.991Z,32.93
2018-08-01T13:36:32.945Z,32.71
2018-08-01T13:38:00.702Z,32.62
2018-08-01T13:39:29.267Z,32.47
2018-08-01T13:40:56.919Z,32.41
2018-08-01T13:42:23.579Z,32.18
2018-08-01T13:43:52.223Z,32.18
2018-08-01T13:45:18.876Z,32.20
2018-08-01T13:46:46.555Z,32.22
2018-08-01T13:48:14.403Z,32.24
2018-08-01T13:49:42.151Z,32.14
2018-08-01T13:51:10.129Z,32.08
2018-08-01T13:52:37.787Z,32.03
2018-08-01T13:54:05.527Z,31.99
2018-08-01T13:55:32.838Z,31.89
2018-08-01T13:57:00.500Z,31.65
2018-08-01T14:06:39.094Z,31.76
2018-08-01T14:08:07.624Z,31.65
2018-08-01T14:09:34.326Z,31.52
2018-08-01T14:11:01.964Z,31.43
2018-08-01T14:12:29.915Z,31.30
2018-08-01T14:13:56.669Z,31.16
2018-08-01T14:15:24.187Z,30.97
2018-08-01T14:16:52.035Z,30.88
2018-08-01T14:18:20.774Z,30.87
2018-08-01T14:19:47.453Z,30.89
2018-08-01T14:21:15.270Z,30.91
2018-08-01T14:22:42.815Z,30.95
2018-08-01T14:24:10.152Z,31.03
2018-08-01T14:25:37.371Z,31.16
2018-08-01T14:27:05.032Z,31.23
2018-08-01T14:28:32.823Z,31.29
2018-08-01T14:30:00.211Z,31.37
2018-08-01T14:31:27.886Z,31.40
2018-08-01T14:32:56.382Z,31.34
2018-08-01T14:34:23.190Z,31.30
2018-08-01T14:35:50.995Z,31.28
2018-08-01T14:37:19.691Z,31.20
2018-08-01T14:38:46.313Z,31.03
2018-08-01T14:40:15.067Z,30.96
2018-08-01T14:41:41.667Z,30.94
2018-08-01T14:43:09.342Z,30.93
2018-08-01T14:44:37.040Z,30.91
2018-08-01T14:46:04.634Z,30.92
2018-08-01T14:47:32.358Z,30.85
2018-08-01T14:49:00.167Z,30.83
2018-08-01T14:50:27.885Z,30.81
2018-08-01T14:51:56.527Z,30.81
2018-08-01T14:53:24.136Z,30.78
2018-08-01T14:54:51.749Z,30.72
2018-08-01T14:56:18.477Z,30.68
2018-08-01T14:57:46.946Z,30.64
2018-08-01T14:59:13.459Z,30.56
2018-08-01T15:00:41.160Z,30.46
2018-08-01T15:02:09.789Z,30.40
2018-08-01T15:03:37.577Z,30.34
2018-08-01T15:05:10.373Z,30.31
2018-08-01T15:06:31.980Z,30.13
2018-08-01T15:07:59.259Z,30.14
2018-08-01T15:09:26.957Z,30.11
2018-08-01T15:10:54.370Z,30.01
2018-08-01T15:12:21.968Z,29.93
2018-08-01T15:13:50.419Z,29.88
2018-08-01T15:15:16.854Z,29.87
2018-08-01T15:16:44.534Z,29.92
2018-08-01T15:18:12.160Z,29.99
2018-08-01T15:19:39.771Z,30.01
2018-08-01T15:21:07.501Z,29.99
2018-08-01T15:22:34.653Z,30.02
2018-08-01T15:24:02.155Z,30.00
2018-08-01T15:25:30.044Z,29.92
2018-08-01T15:26:57.625Z,29.82
2018-08-01T15:28:25.395Z,29.74
2018-08-01T15:29:52.812Z,29.71
2018-08-01T15:31:20.590Z,29.71
2018-08-01T15:32:48.253Z,29.57
2018-08-01T15:34:15.849Z,29.44
2018-08-01T15:35:43.341Z,29.36
2018-08-01T15:37:10.988Z,29.30
2018-08-01T15:38:38.700Z,29.33
2018-08-01T15:40:07.435Z,29.33
2018-08-01T15:41:34.061Z,29.34
2018-08-01T15:43:01.712Z,29.24
2018-08-01T15:44:30.356Z,29.14
2018-08-01T15:45:57.057Z,29.10
2018-08-01T15:47:24.714Z,29.12
2018-08-01T15:48:52.338Z,29.07
2018-08-01T15:50:19.967Z,29.00
2018-08-01T15:51:47.521Z,28.99
2018-08-01T15:53:16.057Z,28.95
2018-08-01T15:54:43.693Z,28.95
2018-08-01T15:56:11.410Z,28.95
2018-08-01T15:57:38.096Z,28.85
2018-08-01T15:59:05.767Z,28.80
2018-08-01T16:00:33.475Z,28.75
2018-08-01T16:02:01.098Z,28.76
2018-08-01T16:03:28.709Z,28.81
2018-08-01T16:04:56.573Z,28.87
2018-08-01T16:06:24.292Z,28.88
2018-08-01T16:07:51.637Z,28.87
2018-08-01T16:09:19.249Z,28.81
2018-08-01T16:10:46.855Z,28.74
2018-08-01T16:12:14.377Z,28.64
2018-08-01T16:13:42.064Z,28.62
2018-08-01T16:15:09.731Z,28.57
2018-08-01T16:16:37.795Z,28.54
2018-08-01T16:18:04.277Z,28.58
2018-08-01T16:19:31.978Z,28.56
2018-08-01T16:20:59.391Z,28.60
2018-08-01T16:22:28.038Z,28.59
2018-08-01T16:23:54.811Z,28.56
2018-08-01T16:25:23.142Z,28.47
2018-08-01T16:26:49.806Z,28.39
2018-08-01T16:28:18.172Z,28.36
2018-08-01T16:29:44.898Z,28.37
2018-08-01T16:31:13.343Z,28.35
2018-08-01T16:32:39.867Z,28.40
2018-08-01T16:34:07.572Z,28.46
2018-08-01T16:35:35.401Z,28.52
2018-08-01T16:37:03.361Z,28.56
2018-08-01T16:38:31.768Z,28.56
2018-08-01T16:39:58.503Z,28.52
2018-08-01T16:41:25.973Z,28.43
2018-08-01T16:42:53.417Z,28.36
2018-08-01T16:44:21.152Z,28.31
2018-08-01T16:45:48.791Z,28.30
2018-08-01T16:47:16.497Z,28.34
2018-08-01T16:48:44.073Z,28.37
2018-08-01T16:50:11.841Z,28.39
2018-08-01T16:51:40.561Z,28.36
2018-08-01T16:53:07.364Z,28.34
2018-08-01T16:54:34.905Z,28.34
2018-08-01T16:56:02.540Z,28.35
2018-08-01T16:57:31.232Z,28.30
2018-08-01T16:58:57.996Z,28.26
2018-08-01T17:00:25.600Z,28.24
2018-08-01T17:01:53.270Z,28.26
2018-08-01T17:03:20.858Z,28.30
2018-08-01T17:04:48.376Z,28.35
2018-08-01T17:06:16.094Z,28.35
2018-08-01T17:07:43.767Z,28.33
2018-08-01T17:09:11.496Z,28.28
2018-08-01T17:10:39.019Z,28.19
2018-08-01T17:12:06.705Z,28.12
2018-08-01T17:13:35.595Z,28.02
2018-08-01T17:15:02.468Z,27.96
2018-08-01T17:16:31.072Z,27.93
2018-08-01T17:17:58.744Z,27.86
2018-08-01T17:19:26.461Z,27.87
2018-08-01T17:20:53.813Z,27.80
2018-08-01T17:22:21.488Z,27.71
2018-08-01T17:23:48.120Z,27.61
2018-08-01T17:25:15.930Z,27.56
2018-08-01T17:26:43.401Z,27.58
2018-08-01T17:28:11.074Z,27.53
2018-08-01T17:29:38.641Z,27.49
2018-08-01T17:31:07.448Z,27.43
2018-08-01T17:32:35.132Z,27.37
2018-08-01T17:34:01.821Z,27.33
2018-08-01T17:35:29.143Z,27.30
2018-08-01T17:36:57.171Z,27.29
2018-08-01T17:38:23.973Z,27.27
2018-08-01T17:39:51.796Z,27.29
2018-08-01T17:41:19.417Z,27.31
2018-08-01T17:42:47.898Z,27.30
2018-08-01T17:44:14.095Z,27.22
2018-08-01T17:45:41.840Z,27.14
2018-08-01T17:47:10.325Z,27.10
2018-08-01T17:48:36.956Z,27.07
2018-08-01T17:50:04.525Z,27.05
2018-08-01T17:51:32.446Z,27.03
2018-08-01T17:53:00.955Z,26.99
2018-08-01T17:54:27.789Z,26.99
2018-08-01T17:55:55.201Z,26.98
2018-08-01T17:57:23.043Z,26.91
2018-08-01T17:58:50.376Z,26.88
2018-08-01T18:00:19.203Z,26.88
2018-08-01T18:01:46.651Z,26.84
2018-08-01T18:03:13.173Z,26.82
2018-08-01T18:04:41.296Z,26.80
2018-08-01T18:06:07.929Z,26.79
2018-08-01T18:07:35.397Z,26.78
2018-08-01T18:09:02.970Z,26.76
2018-08-01T18:10:30.650Z,26.76
2018-08-01T18:11:58.129Z,26.71
2018-08-01T18:13:25.784Z,26.66
2018-08-01T18:14:53.258Z,26.59
2018-08-01T18:16:21.039Z,26.58
2018-08-01T18:17:48.151Z,26.56
2018-08-01T18:19:16.427Z,26.51
2018-08-01T18:20:44.195Z,26.48
2018-08-01T18:22:10.128Z,26.47
2018-08-01T18:23:37.828Z,26.48
2018-08-01T18:25:05.410Z,26.45
2018-08-01T18:26:33.052Z,26.40
2018-08-01T18:28:00.895Z,26.37
2018-08-01T18:29:28.548Z,26.33
2018-08-01T18:30:55.630Z,26.27
2018-08-01T18:32:23.171Z,26.22
2018-08-01T18:33:50.829Z,26.17
2018-08-01T18:35:19.152Z,26.15
2018-08-01T18:36:45.703Z,26.13
2018-08-01T18:38:13.025Z,26.09
2018-08-01T18:39:41.793Z,26.05
2018-08-01T18:41:09.162Z,26.03
2018-08-01T18:42:35.756Z,25.98
2018-08-01T18:44:03.158Z,25.97
2018-08-01T18:45:31.753Z,25.94
2018-08-01T18:46:59.506Z,25.89
2018-08-01T18:48:26.171Z,25.88
2018-08-01T18:49:53.778Z,25.85
2018-08-01T18:51:21.248Z,25.80
2018-08-01T18:52:48.833Z,25.76
2018-08-01T18:54:16.118Z,25.70
2018-08-01T18:55:43.561Z,25.67
2018-08-01T18:57:11.202Z,25.64
2018-08-01T18:58:39.926Z,25.57
2018-08-01T19:00:07.546Z,25.56
2018-08-01T19:01:34.231Z,25.52
2018-08-01T19:03:02.713Z,25.50
2018-08-01T19:04:30.356Z,25.44
2018-08-01T19:05:56.826Z,25.42
2018-08-01T19:07:24.498Z,25.40
2018-08-01T19:08:53.002Z,25.34
2018-08-01T19:10:19.778Z,25.32
2018-08-01T19:11:48.271Z,25.29
2018-08-01T19:13:14.784Z,25.26
2018-08-01T19:14:42.575Z,25.25
2018-08-01T19:16:10.245Z,25.26
2018-08-01T19:17:38.618Z,25.26
2018-08-01T19:19:05.323Z,25.25
2018-08-01T19:20:32.854Z,25.23
2018-08-01T19:22:00.406Z,25.20
2018-08-01T19:23:27.892Z,25.14
2018-08-01T19:24:55.396Z,25.10
2018-08-01T19:26:23.141Z,25.06
2018-08-01T19:27:50.684Z,25.01
2018-08-01T19:29:19.198Z,25.02
2018-08-01T19:30:46.775Z,25.01
2018-08-01T19:32:14.347Z,25.00
2018-08-01T19:33:40.699Z,25.00
2018-08-01T19:35:08.226Z,24.97
2018-08-01T19:36:36.771Z,24.97
2018-08-01T19:38:03.392Z,24.94
2018-08-01T19:39:31.853Z,24.91
2018-08-01T19:40:59.482Z,24.92
2018-08-01T19:42:26.104Z,24.95
2018-08-01T19:43:53.596Z,24.95
2018-08-01T19:45:21.193Z,24.95
2018-08-01T19:46:48.640Z,24.90
2018-08-01T19:48:16.135Z,24.88
2018-08-01T19:49:43.899Z,24.83
2018-08-01T19:51:12.894Z,24.77
2018-08-01T19:52:39.593Z,24.68
2018-08-01T19:54:07.226Z,24.59
2018-08-01T19:55:34.955Z,24.50
2018-08-01T19:57:01.878Z,24.43
2018-08-01T19:58:30.320Z,24.36
2018-08-01T19:59:57.089Z,24.29
2018-08-01T20:01:24.468Z,24.23
2018-08-01T20:02:53.174Z,24.19
2018-08-01T20:04:19.684Z,24.14
2018-08-01T20:05:48.298Z,24.10
2018-08-01T20:07:16.066Z,24.06
2018-08-01T20:08:42.407Z,24.03
2018-08-01T20:10:11.096Z,23.99
2018-08-01T20:11:38.713Z,23.94
2018-08-01T20:13:06.257Z,23.90
2018-08-01T20:14:32.845Z,23.89
2018-08-01T20:16:00.331Z,23.88
2018-08-01T20:17:28.912Z,23.88
2018-08-01T20:18:56.554Z,23.87
2018-08-01T20:20:24.159Z,23.86